createdAt,value
2023-09-29T00:02:48.215Z,11.13
2023-09-29T00:07:53.754Z,14.57
2023-09-29T00:12:55.308Z,12.77
2023-09-29T00:17:56.827Z,13.55
2023-09-29T00:23:00.438Z,12.85
2023-09-29T00:28:01.989Z,11.07
2023-09-29T00:33:04.706Z,12.57
2023-09-29T00:38:06.924Z,12.38
2023-09-29T00:43:09.540Z,12.52
2023-09-29T00:48:11.677Z,14.32
2023-09-29T00:53:16.654Z,12.90
2023-09-29T00:58:18.569Z,10.85
2023-09-29T01:03:20.297Z,13.68
2023-09-29T01:08:24.211Z,11.73
2023-09-29T01:13:25.818Z,13.43
2023-09-29T01:18:27.576Z,11.65
2023-09-29T01:23:32.232Z,12.57
2023-09-29T01:28:34.796Z,11.82
2023-09-29T01:33:40.361Z,12.15
2023-09-29T01:38:42.013Z,11.65
2023-09-29T01:43:43.541Z,12.13
2023-09-29T01:48:46.114Z,12.50
2023-09-29T01:53:47.964Z,11.88
2023-09-29T01:58:50.275Z,12.45
2023-09-29T02:03:52.485Z,14.38
2023-09-29T02:08:54.174Z,11.30
2023-09-29T02:13:55.875Z,11.82
2023-09-29T02:18:57.714Z,12.43
2023-09-29T02:24:00.077Z,12.82
2023-09-29T02:29:02.184Z,12.13
2023-09-29T02:34:04.496Z,13.65
2023-09-29T02:39:06.101Z,13.25
2023-09-29T02:44:08.349Z,11.57
2023-09-29T02:49:10.498Z,13.43
2023-09-29T02:54:12.068Z,12.65
2023-09-29T02:59:13.603Z,13.30
2023-09-29T03:04:15.101Z,12.90
2023-09-29T03:09:19.785Z,12.75
2023-09-29T03:14:22.212Z,12.40
2023-09-29T03:19:23.715Z,12.55
2023-09-29T03:24:30.411Z,10.65
2023-09-29T03:29:32.306Z,11.43
2023-09-29T03:34:33.832Z,13.18
2023-09-29T03:39:35.356Z,12.63
2023-09-29T03:44:37.944Z,13.20
2023-09-29T03:49:40.146Z,15.00
2023-09-29T03:54:41.711Z,11.38
2023-09-29T03:59:43.799Z,10.90
2023-09-29T04:04:45.299Z,9.75
2023-09-29T04:09:47.201Z,12.00
2023-09-29T04:14:48.828Z,10.73
2023-09-29T04:19:50.530Z,12.23
2023-09-29T04:24:52.506Z,12.48
2023-09-29T04:29:54.195Z,11.40
2023-09-29T04:34:55.844Z,13.63
2023-09-29T04:39:58.445Z,12.13
2023-09-29T04:44:59.969Z,10.88
2023-09-29T04:50:01.549Z,11.73
2023-09-29T04:55:03.130Z,12.60
2023-09-29T05:00:05.089Z,15.40
2023-09-29T05:05:07.222Z,15.38
2023-09-29T05:10:09.186Z,12.95
2023-09-29T05:15:11.257Z,12.85
2023-09-29T05:20:13.868Z,10.82
2023-09-29T05:25:15.450Z,14.57
2023-09-29T05:30:17.792Z,13.00
2023-09-29T05:35:19.295Z,15.02
2023-09-29T05:40:20.911Z,12.27
2023-09-29T05:45:22.581Z,14.80
2023-09-29T05:50:24.140Z,14.40
2023-09-29T05:55:26.387Z,16.95
2023-09-29T06:00:28.327Z,15.65
2023-09-29T06:05:30.634Z,12.55
2023-09-29T06:10:32.229Z,12.43
2023-09-29T06:15:33.849Z,14.30
2023-09-29T06:20:35.576Z,12.00
2023-09-29T06:25:37.085Z,14.23
2023-09-29T06:30:39.027Z,12.88
2023-09-29T06:35:42.199Z,16.70
2023-09-29T06:40:45.210Z,17.05
2023-09-29T06:46:00.358Z,13.43
2023-09-29T06:51:03.684Z,12.70
2023-09-29T06:56:05.261Z,14.20
2023-09-29T07:01:08.585Z,17.35
2023-09-29T07:06:10.270Z,12.35
2023-09-29T07:11:11.830Z,15.88
2023-09-29T07:16:14.710Z,12.77
2023-09-29T07:21:16.334Z,17.98
2023-09-29T07:26:17.946Z,17.00
2023-09-29T07:31:19.605Z,17.85
2023-09-29T07:36:21.217Z,15.00
2023-09-29T07:41:22.716Z,17.85
2023-09-29T07:46:24.344Z,14.07
2023-09-29T07:51:26.306Z,11.82
2023-09-29T07:56:27.832Z,11.20
2023-09-29T08:01:29.324Z,13.30
2023-09-29T08:06:30.881Z,13.18
2023-09-29T08:11:32.357Z,11.45
2023-09-29T08:16:35.310Z,13.48
2023-09-29T08:21:36.968Z,12.60
2023-09-29T08:26:39.091Z,12.32
2023-09-29T08:31:40.829Z,9.10
2023-09-29T08:36:42.821Z,12.98
2023-09-29T08:41:55.936Z,11.52
2023-09-29T08:47:02.112Z,12.75
2023-09-29T08:52:04.612Z,10.43
2023-09-29T08:57:07.275Z,12.18
2023-09-29T09:02:09.363Z,9.20
2023-09-29T09:07:11.042Z,7.53
2023-09-29T09:12:12.550Z,7.88
2023-09-29T09:17:14.133Z,9.57
2023-09-29T09:22:16.677Z,7.80
2023-09-29T09:27:19.500Z,6.90
2023-09-29T09:32:28.461Z,10.45
2023-09-29T09:37:30.220Z,6.70
2023-09-29T09:42:32.284Z,8.32
2023-09-29T09:47:34.306Z,8.45
2023-09-29T09:52:36.707Z,5.53
2023-09-29T09:57:39.940Z,5.05
2023-09-29T10:02:47.447Z,3.95
2023-09-29T10:07:52.992Z,5.05
2023-09-29T10:12:56.194Z,3.42
2023-09-29T10:18:01.588Z,6.15
2023-09-29T10:23:07.627Z,5.10
2023-09-29T10:28:13.605Z,9.45
2023-09-29T10:33:15.198Z,6.63
2023-09-29T10:38:27.681Z,4.55
2023-09-29T10:43:29.227Z,4.05
2023-09-29T10:48:31.080Z,3.35
2023-09-29T10:53:37.482Z,3.90
2023-09-29T10:58:42.129Z,3.63
2023-09-29T11:03:44.962Z,5.40
2023-09-29T11:08:54.955Z,3.67
2023-09-29T11:13:58.380Z,4.53
2023-09-29T11:19:16.863Z,3.03
2023-09-29T11:24:20.435Z,4.88
2023-09-29T11:29:29.292Z,2.80
2023-09-29T11:34:32.985Z,3.65
2023-09-29T11:39:34.581Z,3.97
2023-09-29T11:44:36.270Z,3.95
2023-09-29T11:49:37.806Z,3.25
2023-09-29T11:54:39.343Z,5.75
2023-09-29T11:59:41.278Z,5.13
2023-09-29T12:04:43.190Z,5.00
2023-09-29T12:09:44.744Z,5.65
2023-09-29T12:14:46.436Z,5.47
2023-09-29T12:19:48.194Z,6.20
2023-09-29T12:24:51.083Z,3.80
2023-09-29T12:29:52.778Z,15.75
2023-09-29T12:34:55.030Z,19.27
2023-09-29T12:39:56.532Z,4.57
2023-09-29T12:44:58.296Z,7.00
2023-09-29T12:49:59.788Z,6.47
2023-09-29T12:55:01.342Z,4.07
2023-09-29T13:00:05.785Z,3.45
2023-09-29T13:05:09.968Z,3.90
2023-09-29T13:10:11.551Z,3.75
2023-09-29T13:15:13.091Z,7.38
2023-09-29T13:20:15.060Z,4.25
2023-09-29T13:25:16.681Z,5.43
2023-09-29T13:30:18.467Z,4.43
2023-09-29T13:35:20.066Z,3.78
2023-09-29T13:40:22.218Z,4.57
2023-09-29T13:45:23.926Z,4.07
2023-09-29T13:50:25.634Z,7.55
2023-09-29T13:55:27.220Z,4.35
2023-09-29T14:00:28.738Z,4.00
2023-09-29T14:05:30.310Z,6.70
2023-09-29T14:10:32.788Z,4.78
2023-09-29T14:15:34.348Z,7.22
2023-09-29T14:20:36.972Z,6.03
2023-09-29T14:25:38.917Z,4.65
2023-09-29T14:30:42.157Z,6.78
2023-09-29T14:35:49.187Z,6.47
2023-09-29T14:40:51.093Z,7.03
2023-09-29T14:45:53.416Z,4.65
2023-09-29T14:50:55.049Z,4.55
2023-09-29T14:55:56.567Z,6.03
2023-09-29T15:00:58.550Z,4.63
2023-09-29T15:06:01.284Z,3.58
2023-09-29T15:11:03.988Z,3.20
2023-09-29T15:16:11.396Z,6.68
2023-09-29T15:21:12.978Z,4.32
2023-09-29T15:26:14.479Z,2.38
2023-09-29T15:31:16.007Z,2.40
2023-09-29T15:36:17.965Z,2.60
2023-09-29T15:41:19.900Z,2.63
2023-09-29T15:46:21.440Z,4.45
2023-09-29T15:51:23.089Z,3.88
2023-09-29T15:56:24.679Z,2.80
2023-09-29T16:01:26.257Z,4.88
2023-09-29T16:06:27.872Z,3.47
2023-09-29T16:11:29.466Z,2.90
2023-09-29T16:16:31.141Z,4.28
2023-09-29T16:21:32.709Z,3.78
2023-09-29T16:26:34.305Z,2.70
2023-09-29T16:31:35.866Z,2.83
2023-09-29T16:36:37.477Z,4.47
2023-09-29T16:41:39.007Z,3.30
2023-09-29T16:46:40.612Z,5.18
2023-09-29T16:51:42.095Z,3.35
2023-09-29T16:56:43.577Z,2.83
2023-09-29T17:01:45.080Z,3.50
2023-09-29T17:06:46.608Z,2.97
2023-09-29T17:11:48.619Z,3.85
2023-09-29T17:16:50.245Z,7.75
2023-09-29T17:21:51.763Z,8.10
2023-09-29T17:26:53.392Z,5.40
2023-09-29T17:31:55.441Z,3.95
2023-09-29T17:36:56.934Z,5.55
2023-09-29T17:42:00.126Z,3.20
2023-09-29T17:47:01.712Z,4.35
2023-09-29T17:52:03.716Z,3.80
2023-09-29T17:57:05.241Z,4.10
2023-09-29T18:02:07.081Z,7.28
2023-09-29T18:07:10.795Z,3.47
2023-09-29T18:12:12.352Z,2.90
2023-09-29T18:17:13.921Z,4.93
2023-09-29T18:22:15.443Z,5.03
2023-09-29T18:27:17.753Z,6.90
2023-09-29T18:32:19.390Z,3.90
2023-09-29T18:37:22.423Z,5.90
2023-09-29T18:42:25.634Z,4.30
2023-09-29T18:47:27.197Z,7.35
2023-09-29T18:52:28.775Z,4.38
2023-09-29T18:57:30.402Z,6.97
2023-09-29T19:02:33.071Z,4.93
2023-09-29T19:07:34.684Z,5.97
2023-09-29T19:12:36.745Z,5.03
2023-09-29T19:17:39.137Z,4.07
2023-09-29T19:22:41.101Z,5.20
2023-09-29T19:27:42.583Z,3.63
2023-09-29T19:32:45.239Z,4.47
2023-09-29T19:37:47.090Z,3.72
2023-09-29T19:42:49.112Z,4.07
2023-09-29T19:47:51.468Z,4.93
2023-09-29T19:52:53.007Z,4.90
2023-09-29T19:57:54.488Z,4.93
2023-09-29T20:02:56.048Z,4.68
2023-09-29T20:07:57.698Z,6.72
2023-09-29T20:12:59.226Z,4.88
2023-09-29T20:18:01.191Z,4.20
2023-09-29T20:23:03.590Z,5.13
2023-09-29T20:28:05.460Z,4.57
2023-09-29T20:33:08.743Z,6.00
2023-09-29T20:38:10.932Z,6.80
2023-09-29T20:43:12.549Z,5.57
2023-09-29T20:48:17.987Z,5.68
2023-09-29T20:53:20.934Z,5.18
2023-09-29T20:58:22.905Z,5.47
2023-09-29T21:03:24.509Z,5.30
2023-09-29T21:08:26.060Z,5.28
2023-09-29T21:13:28.189Z,8.93
2023-09-29T21:18:29.726Z,6.45
2023-09-29T21:23:31.719Z,5.60
2023-09-29T21:28:35.195Z,6.75
2023-09-29T21:33:36.731Z,7.05
2023-09-29T21:38:38.245Z,7.03
2023-09-29T21:43:40.028Z,7.50
2023-09-29T21:48:41.564Z,8.25
2023-09-29T21:53:43.109Z,8.35
2023-09-29T21:58:44.604Z,7.40
2023-09-29T22:03:46.349Z,9.38
2023-09-29T22:08:48.518Z,13.85
2023-09-29T22:13:50.404Z,8.40
2023-09-29T22:18:52.920Z,9.00
2023-09-29T22:23:54.575Z,9.05
2023-09-29T22:28:57.368Z,9.35
2023-09-29T22:33:59.272Z,11.18
2023-09-29T22:39:01.143Z,10.07
2023-09-29T22:44:02.662Z,9.60
2023-09-29T22:49:04.252Z,12.75
2023-09-29T22:54:08.734Z,11.30
2023-09-29T22:59:12.953Z,8.95
2023-09-29T23:04:14.450Z,11.75
2023-09-29T23:09:16.036Z,12.88
2023-09-29T23:14:17.812Z,11.95
2023-09-29T23:19:19.760Z,12.07
2023-09-29T23:24:22.376Z,14.55
2023-09-29T23:29:23.991Z,12.77
2023-09-29T23:34:25.724Z,14.15
2023-09-29T23:39:27.267Z,12.23
2023-09-29T23:44:32.413Z,12.30
2023-09-29T23:49:33.889Z,10.98
2023-09-29T23:54:35.449Z,8.07
2023-09-29T23:59:36.940Z,8.13
